Milwaukee, Wisconsin
Traffic Map
Current Weather Conditions
Milwaukee, Wisconsin
Broken Clouds
Broken Clouds
-3°
Feels Like: -12°
Wind Chill: -12° Ceiling: 25000
Heat Index: -3° Visibility: 9mi
Dew Point: -12° Wind: 25mph
Humidity: 53% Direction: 210° (SSW)
Pressure: 30.14in Gusts: 31mph
Raw Report DataKMKE 062052Z 21022G27KT 9SM SCT100 BKN250 M03/M12 A3014 RMK AO2 PK WND 22031/2013 SLP220 T10331117 56035
Traffic Incident Summary
Active as of:
Severity:
Category:
InformationThere was an issue retrieving the traffic information for this location. Please try a different location or try again shortly.
Advertisements
Track Severe Weather on mobile